sensor_id;sensor_type;location;lat;lon;timestamp;P1;durP1;ratioP1;P2;durP2;ratioP2
2041;SDS011;1026;51.460;7.252;2023-04-03T00:01:34;5.17;;;4.67;;
2041;SDS011;1026;51.460;7.252;2023-04-03T00:04:01;5.27;;;4.80;;
2041;SDS011;1026;51.460;7.252;2023-04-03T00:06:29;10.00;;;4.57;;
2041;SDS011;1026;51.460;7.252;2023-04-03T00:08:55;5.80;;;5.20;;
2041;SDS011;1026;51.460;7.252;2023-04-03T00:11:23;5.17;;;4.57;;
2041;SDS011;1026;51.460;7.252;2023-04-03T00:13:53;6.00;;;4.80;;
2041;SDS011;1026;51.460;7.252;2023-04-03T00:16:20;4.50;;;4.10;;
2041;SDS011;1026;51.460;7.252;2023-04-03T00:18:47;4.63;;;4.20;;
2041;SDS011;1026;51.460;7.252;2023-04-03T00:21:13;5.57;;;5.07;;
2041;SDS011;1026;51.460;7.252;2023-04-03T00:23:43;6.80;;;6.20;;
2041;SDS011;1026;51.460;7.252;2023-04-03T00:26:10;5.33;;;4.50;;
2041;SDS011;1026;51.460;7.252;2023-04-03T00:28:37;7.70;;;4.70;;
2041;SDS011;1026;51.460;7.252;2023-04-03T00:31:06;5.20;;;4.70;;
2041;SDS011;1026;51.460;7.252;2023-04-03T00:33:32;4.87;;;4.37;;
2041;SDS011;1026;51.460;7.252;2023-04-03T00:35:58;4.90;;;4.40;;
2041;SDS011;1026;51.460;7.252;2023-04-03T00:38:23;7.13;;;4.40;;
2041;SDS011;1026;51.460;7.252;2023-04-03T00:40:50;5.50;;;5.00;;
2041;SDS011;1026;51.460;7.252;2023-04-03T00:43:18;5.00;;;4.50;;
2041;SDS011;1026;51.460;7.252;2023-04-03T00:45:45;4.30;;;3.90;;
2041;SDS011;1026;51.460;7.252;2023-04-03T00:48:15;5.40;;;4.47;;
2041;SDS011;1026;51.460;7.252;2023-04-03T00:50:45;7.03;;;3.90;;
2041;SDS011;1026;51.460;7.252;2023-04-03T00:53:12;6.43;;;5.53;;
2041;SDS011;1026;51.460;7.252;2023-04-03T00:55:42;5.60;;;5.00;;
2041;SDS011;1026;51.460;7.252;2023-04-03T00:58:10;4.73;;;4.30;;
2041;SDS011;1026;51.460;7.252;2023-04-03T01:00:40;6.80;;;4.47;;
2041;SDS011;1026;51.460;7.252;2023-04-03T01:03:11;5.90;;;4.60;;
2041;SDS011;1026;51.460;7.252;2023-04-03T01:05:37;6.90;;;4.47;;
2041;SDS011;1026;51.460;7.252;2023-04-03T01:08:04;4.07;;;3.70;;
2041;SDS011;1026;51.460;7.252;2023-04-03T01:10:31;5.00;;;3.70;;
2041;SDS011;1026;51.460;7.252;2023-04-03T01:12:58;5.57;;;4.20;;
2041;SDS011;1026;51.460;7.252;2023-04-03T01:15:27;6.23;;;4.30;;
2041;SDS011;1026;51.460;7.252;2023-04-03T01:17:59;8.13;;;4.10;;
2041;SDS011;1026;51.460;7.252;2023-04-03T01:20:42;8.03;;;5.20;;
2041;SDS011;1026;51.460;7.252;2023-04-03T01:25:50;7.53;;;4.77;;
2041;SDS011;1026;51.460;7.252;2023-04-03T01:28:20;5.13;;;4.40;;
2041;SDS011;1026;51.460;7.252;2023-04-03T01:33:47;7.80;;;4.90;;
2041;SDS011;1026;51.460;7.252;2023-04-03T01:36:17;5.13;;;3.90;;
2041;SDS011;1026;51.460;7.252;2023-04-03T01:38:48;6.33;;;4.70;;
2041;SDS011;1026;51.460;7.252;2023-04-03T01:41:15;5.90;;;5.27;;
2041;SDS011;1026;51.460;7.252;2023-04-03T01:43:47;5.37;;;4.83;;
2041;SDS011;1026;51.460;7.252;2023-04-03T01:46:14;7.23;;;5.40;;
2041;SDS011;1026;51.460;7.252;2023-04-03T01:48:42;5.70;;;5.20;;
2041;SDS011;1026;51.460;7.252;2023-04-03T01:51:10;4.97;;;4.40;;
2041;SDS011;1026;51.460;7.252;2023-04-03T01:53:37;6.77;;;4.93;;
2041;SDS011;1026;51.460;7.252;2023-04-03T01:56:05;5.17;;;4.20;;
2041;SDS011;1026;51.460;7.252;2023-04-03T01:58:31;5.97;;;4.97;;
2041;SDS011;1026;51.460;7.252;2023-04-03T02:00:57;5.50;;;5.10;;
2041;SDS011;1026;51.460;7.252;2023-04-03T02:03:23;8.50;;;5.83;;
2041;SDS011;1026;51.460;7.252;2023-04-03T02:05:52;7.47;;;4.93;;
2041;SDS011;1026;51.460;7.252;2023-04-03T02:08:21;10.30;;;5.93;;
2041;SDS011;1026;51.460;7.252;2023-04-03T02:10:49;4.97;;;4.43;;
2041;SDS011;1026;51.460;7.252;2023-04-03T02:13:16;5.33;;;4.83;;
2041;SDS011;1026;51.460;7.252;2023-04-03T02:15:44;5.40;;;4.90;;
2041;SDS011;1026;51.460;7.252;2023-04-03T02:18:10;6.03;;;5.43;;
2041;SDS011;1026;51.460;7.252;2023-04-03T02:20:43;6.23;;;5.37;;
2041;SDS011;1026;51.460;7.252;2023-04-03T02:23:11;7.37;;;5.10;;
2041;SDS011;1026;51.460;7.252;2023-04-03T02:25:37;5.73;;;5.07;;
2041;SDS011;1026;51.460;7.252;2023-04-03T02:28:02;4.90;;;4.10;;
2041;SDS011;1026;51.460;7.252;2023-04-03T02:30:29;7.03;;;4.00;;
2041;SDS011;1026;51.460;7.252;2023-04-03T02:32:56;4.43;;;4.03;;
2041;SDS011;1026;51.460;7.252;2023-04-03T02:35:22;7.13;;;5.50;;
2041;SDS011;1026;51.460;7.252;2023-04-03T02:37:49;6.00;;;4.80;;
2041;SDS011;1026;51.460;7.252;2023-04-03T02:40:16;4.47;;;4.13;;
2041;SDS011;1026;51.460;7.252;2023-04-03T02:42:41;6.50;;;5.37;;
2041;SDS011;1026;51.460;7.252;2023-04-03T02:45:07;5.27;;;4.73;;
2041;SDS011;1026;51.460;7.252;2023-04-03T02:47:36;7.80;;;4.67;;
2041;SDS011;1026;51.460;7.252;2023-04-03T02:50:04;7.20;;;4.60;;
2041;SDS011;1026;51.460;7.252;2023-04-03T02:52:31;6.20;;;5.23;;
2041;SDS011;1026;51.460;7.252;2023-04-03T02:54:57;6.17;;;4.13;;
2041;SDS011;1026;51.460;7.252;2023-04-03T02:57:23;5.20;;;4.40;;
2041;SDS011;1026;51.460;7.252;2023-04-03T02:59:52;6.03;;;5.30;;
2041;SDS011;1026;51.460;7.252;2023-04-03T03:02:21;4.50;;;4.10;;
2041;SDS011;1026;51.460;7.252;2023-04-03T03:04:46;6.13;;;3.83;;
2041;SDS011;1026;51.460;7.252;2023-04-03T03:07:12;5.97;;;4.50;;
2041;SDS011;1026;51.460;7.252;2023-04-03T03:09:38;6.00;;;5.40;;
2041;SDS011;1026;51.460;7.252;2023-04-03T03:12:06;6.40;;;5.00;;
2041;SDS011;1026;51.460;7.252;2023-04-03T03:14:34;4.17;;;3.33;;
2041;SDS011;1026;51.460;7.252;2023-04-03T03:17:02;5.17;;;4.57;;
2041;SDS011;1026;51.460;7.252;2023-04-03T03:19:34;4.87;;;4.37;;
2041;SDS011;1026;51.460;7.252;2023-04-03T03:22:01;4.73;;;3.80;;
2041;SDS011;1026;51.460;7.252;2023-04-03T03:24:28;7.93;;;3.67;;
2041;SDS011;1026;51.460;7.252;2023-04-03T03:26:56;3.83;;;3.53;;
2041;SDS011;1026;51.460;7.252;2023-04-03T03:29:25;4.70;;;3.93;;
2041;SDS011;1026;51.460;7.252;2023-04-03T03:32:02;5.13;;;4.10;;
2041;SDS011;1026;51.460;7.252;2023-04-03T03:34:29;5.93;;;3.20;;
2041;SDS011;1026;51.460;7.252;2023-04-03T03:36:56;5.10;;;4.00;;
2041;SDS011;1026;51.460;7.252;2023-04-03T03:39:22;5.50;;;3.33;;
2041;SDS011;1026;51.460;7.252;2023-04-03T03:41:48;5.33;;;4.67;;
2041;SDS011;1026;51.460;7.252;2023-04-03T03:44:14;4.87;;;3.50;;
2041;SDS011;1026;51.460;7.252;2023-04-03T03:46:40;4.13;;;3.40;;
2041;SDS011;1026;51.460;7.252;2023-04-03T03:49:08;4.80;;;3.20;;
2041;SDS011;1026;51.460;7.252;2023-04-03T03:51:36;5.60;;;4.27;;
2041;SDS011;1026;51.460;7.252;2023-04-03T03:54:02;4.00;;;3.03;;
2041;SDS011;1026;51.460;7.252;2023-04-03T03:56:29;7.13;;;3.27;;
2041;SDS011;1026;51.460;7.252;2023-04-03T03:58:57;6.10;;;3.40;;
2041;SDS011;1026;51.460;7.252;2023-04-03T04:01:24;2.93;;;2.53;;
2041;SDS011;1026;51.460;7.252;2023-04-03T04:03:50;4.70;;;3.00;;
2041;SDS011;1026;51.460;7.252;2023-04-03T04:06:25;4.80;;;2.80;;
2041;SDS011;1026;51.460;7.252;2023-04-03T04:08:51;3.70;;;3.37;;
2041;SDS011;1026;51.460;7.252;2023-04-03T04:11:19;2.90;;;2.43;;
2041;SDS011;1026;51.460;7.252;2023-04-03T04:13:47;4.77;;;4.07;;
2041;SDS011;1026;51.460;7.252;2023-04-03T04:16:13;2.77;;;2.57;;
2041;SDS011;1026;51.460;7.252;2023-04-03T04:18:42;3.70;;;2.80;;
2041;SDS011;1026;51.460;7.252;2023-04-03T04:21:08;2.50;;;2.30;;
2041;SDS011;1026;51.460;7.252;2023-04-03T04:23:33;5.00;;;3.47;;
2041;SDS011;1026;51.460;7.252;2023-04-03T04:25:59;4.40;;;2.73;;
2041;SDS011;1026;51.460;7.252;2023-04-03T04:28:25;4.53;;;2.90;;
2041;SDS011;1026;51.460;7.252;2023-04-03T04:30:53;3.07;;;2.40;;
2041;SDS011;1026;51.460;7.252;2023-04-03T04:33:28;2.60;;;2.40;;
2041;SDS011;1026;51.460;7.252;2023-04-03T04:35:54;3.70;;;2.87;;
2041;SDS011;1026;51.460;7.252;2023-04-03T04:38:21;6.37;;;2.43;;
2041;SDS011;1026;51.460;7.252;2023-04-03T04:40:48;2.70;;;2.50;;
2041;SDS011;1026;51.460;7.252;2023-04-03T04:43:14;2.80;;;2.40;;
2041;SDS011;1026;51.460;7.252;2023-04-03T04:45:42;2.97;;;1.90;;
2041;SDS011;1026;51.460;7.252;2023-04-03T04:48:10;2.73;;;2.40;;
2041;SDS011;1026;51.460;7.252;2023-04-03T04:50:37;2.13;;;1.63;;
2041;SDS011;1026;51.460;7.252;2023-04-03T04:53:03;4.63;;;2.20;;
2041;SDS011;1026;51.460;7.252;2023-04-03T04:55:29;3.30;;;2.40;;
2041;SDS011;1026;51.460;7.252;2023-04-03T04:57:55;5.57;;;3.13;;
2041;SDS011;1026;51.460;7.252;2023-04-03T05:00:21;4.23;;;2.17;;
2041;SDS011;1026;51.460;7.252;2023-04-03T05:02:47;2.00;;;1.80;;
2041;SDS011;1026;51.460;7.252;2023-04-03T05:05:13;8.23;;;2.63;;
2041;SDS011;1026;51.460;7.252;2023-04-03T05:07:56;2.60;;;2.40;;
2041;SDS011;1026;51.460;7.252;2023-04-03T05:10:22;3.30;;;2.70;;
2041;SDS011;1026;51.460;7.252;2023-04-03T05:12:48;2.93;;;2.00;;
2041;SDS011;1026;51.460;7.252;2023-04-03T05:15:24;3.77;;;2.50;;
2041;SDS011;1026;51.460;7.252;2023-04-03T05:17:50;5.30;;;2.43;;
2041;SDS011;1026;51.460;7.252;2023-04-03T05:20:16;2.00;;;1.80;;
2041;SDS011;1026;51.460;7.252;2023-04-03T05:22:42;3.30;;;2.00;;
2041;SDS011;1026;51.460;7.252;2023-04-03T05:25:08;3.27;;;2.43;;
2041;SDS011;1026;51.460;7.252;2023-04-03T05:27:34;2.03;;;1.87;;
2041;SDS011;1026;51.460;7.252;2023-04-03T05:29:59;3.63;;;2.40;;
2041;SDS011;1026;51.460;7.252;2023-04-03T05:32:25;3.60;;;2.10;;
2041;SDS011;1026;51.460;7.252;2023-04-03T05:34:52;3.47;;;2.30;;
2041;SDS011;1026;51.460;7.252;2023-04-03T05:37:18;3.13;;;2.30;;
2041;SDS011;1026;51.460;7.252;2023-04-03T05:40:03;3.80;;;2.40;;
2041;SDS011;1026;51.460;7.252;2023-04-03T05:42:30;2.20;;;2.00;;
2041;SDS011;1026;51.460;7.252;2023-04-03T05:44:55;1.97;;;1.70;;
2041;SDS011;1026;51.460;7.252;2023-04-03T05:47:21;3.63;;;2.10;;
2041;SDS011;1026;51.460;7.252;2023-04-03T05:49:48;3.10;;;2.30;;
2041;SDS011;1026;51.460;7.252;2023-04-03T05:52:18;2.00;;;1.80;;
2041;SDS011;1026;51.460;7.252;2023-04-03T05:54:49;3.23;;;2.07;;
2041;SDS011;1026;51.460;7.252;2023-04-03T05:57:15;2.43;;;2.23;;
2041;SDS011;1026;51.460;7.252;2023-04-03T05:59:42;3.00;;;1.97;;
2041;SDS011;1026;51.460;7.252;2023-04-03T06:02:10;2.30;;;1.80;;
2041;SDS011;1026;51.460;7.252;2023-04-03T06:04:39;5.30;;;2.00;;
2041;SDS011;1026;51.460;7.252;2023-04-03T06:07:05;2.90;;;1.97;;
2041;SDS011;1026;51.460;7.252;2023-04-03T06:12:26;2.10;;;1.87;;
2041;SDS011;1026;51.460;7.252;2023-04-03T06:14:54;5.00;;;2.33;;
2041;SDS011;1026;51.460;7.252;2023-04-03T06:17:20;2.80;;;1.90;;
2041;SDS011;1026;51.460;7.252;2023-04-03T06:19:46;4.40;;;1.87;;
2041;SDS011;1026;51.460;7.252;2023-04-03T06:22:12;4.00;;;1.60;;
2041;SDS011;1026;51.460;7.252;2023-04-03T06:24:39;1.70;;;1.10;;
2041;SDS011;1026;51.460;7.252;2023-04-03T06:27:05;3.00;;;1.90;;
2041;SDS011;1026;51.460;7.252;2023-04-03T06:29:30;2.63;;;2.37;;
2041;SDS011;1026;51.460;7.252;2023-04-03T06:31:56;5.53;;;1.93;;
2041;SDS011;1026;51.460;7.252;2023-04-03T06:34:22;3.80;;;2.20;;
2041;SDS011;1026;51.460;7.252;2023-04-03T06:36:48;3.43;;;2.17;;
2041;SDS011;1026;51.460;7.252;2023-04-03T06:39:16;2.70;;;2.00;;
2041;SDS011;1026;51.460;7.252;2023-04-03T06:41:45;3.53;;;1.80;;
2041;SDS011;1026;51.460;7.252;2023-04-03T06:44:11;2.80;;;2.00;;
2041;SDS011;1026;51.460;7.252;2023-04-03T06:46:42;2.63;;;2.17;;
2041;SDS011;1026;51.460;7.252;2023-04-03T06:49:08;5.47;;;2.17;;
2041;SDS011;1026;51.460;7.252;2023-04-03T06:51:35;1.93;;;1.50;;
2041;SDS011;1026;51.460;7.252;2023-04-03T06:54:02;5.70;;;2.20;;
2041;SDS011;1026;51.460;7.252;2023-04-03T06:56:29;3.47;;;1.80;;
2041;SDS011;1026;51.460;7.252;2023-04-03T06:58:55;4.47;;;2.50;;
2041;SDS011;1026;51.460;7.252;2023-04-03T07:01:23;2.80;;;1.67;;
2041;SDS011;1026;51.460;7.252;2023-04-03T07:03:51;4.53;;;1.90;;
2041;SDS011;1026;51.460;7.252;2023-04-03T07:06:17;2.00;;;1.70;;
2041;SDS011;1026;51.460;7.252;2023-04-03T07:08:44;1.63;;;1.30;;
2041;SDS011;1026;51.460;7.252;2023-04-03T07:11:10;5.13;;;2.10;;
2041;SDS011;1026;51.460;7.252;2023-04-03T07:13:37;1.63;;;1.37;;
2041;SDS011;1026;51.460;7.252;2023-04-03T07:16:03;3.60;;;1.77;;
2041;SDS011;1026;51.460;7.252;2023-04-03T07:18:31;3.30;;;1.77;;
2041;SDS011;1026;51.460;7.252;2023-04-03T07:20:59;2.20;;;2.00;;
2041;SDS011;1026;51.460;7.252;2023-04-03T07:23:25;2.40;;;1.77;;
2041;SDS011;1026;51.460;7.252;2023-04-03T07:25:51;7.20;;;1.53;;
2041;SDS011;1026;51.460;7.252;2023-04-03T07:28:17;3.10;;;2.10;;
2041;SDS011;1026;51.460;7.252;2023-04-03T07:30:50;4.07;;;2.30;;
2041;SDS011;1026;51.460;7.252;2023-04-03T07:33:27;4.60;;;2.17;;
2041;SDS011;1026;51.460;7.252;2023-04-03T07:35:53;2.50;;;1.70;;
2041;SDS011;1026;51.460;7.252;2023-04-03T07:38:19;3.77;;;1.60;;
2041;SDS011;1026;51.460;7.252;2023-04-03T07:40:46;3.30;;;1.70;;
2041;SDS011;1026;51.460;7.252;2023-04-03T07:43:12;2.57;;;1.60;;
2041;SDS011;1026;51.460;7.252;2023-04-03T07:45:44;2.37;;;1.73;;
2041;SDS011;1026;51.460;7.252;2023-04-03T07:48:13;6.10;;;2.70;;
2041;SDS011;1026;51.460;7.252;2023-04-03T07:50:40;2.23;;;1.70;;
2041;SDS011;1026;51.460;7.252;2023-04-03T07:53:06;2.40;;;1.70;;
2041;SDS011;1026;51.460;7.252;2023-04-03T07:55:39;1.93;;;1.73;;
2041;SDS011;1026;51.460;7.252;2023-04-03T07:58:08;3.83;;;1.67;;
2041;SDS011;1026;51.460;7.252;2023-04-03T08:00:36;1.53;;;1.43;;
2041;SDS011;1026;51.460;7.252;2023-04-03T08:03:11;5.73;;;1.30;;
2041;SDS011;1026;51.460;7.252;2023-04-03T08:05:44;1.93;;;1.43;;
2041;SDS011;1026;51.460;7.252;2023-04-03T08:08:11;1.60;;;1.20;;
2041;SDS011;1026;51.460;7.252;2023-04-03T08:10:40;4.73;;;1.90;;
2041;SDS011;1026;51.460;7.252;2023-04-03T08:13:06;3.37;;;1.90;;
2041;SDS011;1026;51.460;7.252;2023-04-03T08:15:34;4.67;;;1.80;;
2041;SDS011;1026;51.460;7.252;2023-04-03T08:18:05;6.47;;;2.33;;
2041;SDS011;1026;51.460;7.252;2023-04-03T08:20:39;4.60;;;2.00;;
2041;SDS011;1026;51.460;7.252;2023-04-03T08:23:05;1.47;;;1.30;;
2041;SDS011;1026;51.460;7.252;2023-04-03T08:25:41;1.77;;;1.40;;
2041;SDS011;1026;51.460;7.252;2023-04-03T08:28:07;1.73;;;1.50;;
2041;SDS011;1026;51.460;7.252;2023-04-03T08:30:43;2.57;;;1.43;;
2041;SDS011;1026;51.460;7.252;2023-04-03T08:33:10;8.53;;;1.53;;
2041;SDS011;1026;51.460;7.252;2023-04-03T08:35:38;2.20;;;1.80;;
2041;SDS011;1026;51.460;7.252;2023-04-03T08:38:05;2.07;;;1.33;;
2041;SDS011;1026;51.460;7.252;2023-04-03T08:40:31;2.27;;;1.90;;
2041;SDS011;1026;51.460;7.252;2023-04-03T08:43:01;6.73;;;1.77;;
2041;SDS011;1026;51.460;7.252;2023-04-03T08:45:47;2.20;;;1.03;;
2041;SDS011;1026;51.460;7.252;2023-04-03T08:48:20;2.53;;;1.13;;
2041;SDS011;1026;51.460;7.252;2023-04-03T08:54:06;1.37;;;1.10;;
2041;SDS011;1026;51.460;7.252;2023-04-03T08:56:59;1.10;;;1.00;;
2041;SDS011;1026;51.460;7.252;2023-04-03T08:59:29;3.07;;;1.57;;
2041;SDS011;1026;51.460;7.252;2023-04-03T09:01:59;2.73;;;1.80;;
2041;SDS011;1026;51.460;7.252;2023-04-03T09:04:31;2.40;;;1.40;;
2041;SDS011;1026;51.460;7.252;2023-04-03T09:07:00;5.03;;;1.50;;
2041;SDS011;1026;51.460;7.252;2023-04-03T09:09:34;4.63;;;1.67;;
2041;SDS011;1026;51.460;7.252;2023-04-03T09:17:52;4.17;;;1.40;;
2041;SDS011;1026;51.460;7.252;2023-04-03T09:28:54;1.20;;;0.80;;
2041;SDS011;1026;51.460;7.252;2023-04-03T09:31:31;1.80;;;1.13;;
2041;SDS011;1026;51.460;7.252;2023-04-03T09:34:06;2.70;;;1.40;;
2041;SDS011;1026;51.460;7.252;2023-04-03T09:39:28;3.63;;;1.53;;
2041;SDS011;1026;51.460;7.252;2023-04-03T09:41:55;1.57;;;1.07;;
2041;SDS011;1026;51.460;7.252;2023-04-03T09:46:57;1.87;;;1.13;;
2041;SDS011;1026;51.460;7.252;2023-04-03T09:49:42;2.00;;;1.43;;
2041;SDS011;1026;51.460;7.252;2023-04-03T09:54:50;5.17;;;1.20;;
2041;SDS011;1026;51.460;7.252;2023-04-03T09:57:16;4.00;;;1.40;;
2041;SDS011;1026;51.460;7.252;2023-04-03T09:59:47;2.27;;;1.47;;
2041;SDS011;1026;51.460;7.252;2023-04-03T10:02:32;1.33;;;1.23;;
2041;SDS011;1026;51.460;7.252;2023-04-03T10:08:19;1.80;;;1.00;;
2041;SDS011;1026;51.460;7.252;2023-04-03T10:11:05;2.00;;;1.53;;
2041;SDS011;1026;51.460;7.252;2023-04-03T10:13:34;1.50;;;1.27;;
2041;SDS011;1026;51.460;7.252;2023-04-03T10:18:44;1.53;;;1.00;;
2041;SDS011;1026;51.460;7.252;2023-04-03T10:21:21;2.10;;;0.80;;
2041;SDS011;1026;51.460;7.252;2023-04-03T10:30:00;1.27;;;1.17;;
2041;SDS011;1026;51.460;7.252;2023-04-03T10:32:45;3.93;;;1.90;;
2041;SDS011;1026;51.460;7.252;2023-04-03T10:38:20;1.80;;;1.30;;
2041;SDS011;1026;51.460;7.252;2023-04-03T10:41:17;1.80;;;1.27;;
2041;SDS011;1026;51.460;7.252;2023-04-03T10:46:52;2.50;;;1.40;;
2041;SDS011;1026;51.460;7.252;2023-04-03T10:52:37;2.23;;;1.10;;
2041;SDS011;1026;51.460;7.252;2023-04-03T10:55:43;1.97;;;1.00;;
2041;SDS011;1026;51.460;7.252;2023-04-03T10:58:26;3.80;;;1.43;;
2041;SDS011;1026;51.460;7.252;2023-04-03T11:01:21;5.50;;;1.97;;
2041;SDS011;1026;51.460;7.252;2023-04-03T11:04:10;1.83;;;1.13;;
2041;SDS011;1026;51.460;7.252;2023-04-03T11:06:48;0.80;;;0.80;;
2041;SDS011;1026;51.460;7.252;2023-04-03T11:11:47;2.07;;;1.30;;
2041;SDS011;1026;51.460;7.252;2023-04-03T11:14:31;2.10;;;1.10;;
2041;SDS011;1026;51.460;7.252;2023-04-03T11:17:06;0.80;;;0.70;;
2041;SDS011;1026;51.460;7.252;2023-04-03T11:23:02;2.90;;;1.00;;
2041;SDS011;1026;51.460;7.252;2023-04-03T11:25:32;2.40;;;1.37;;
2041;SDS011;1026;51.460;7.252;2023-04-03T11:28:02;2.20;;;1.03;;
2041;SDS011;1026;51.460;7.252;2023-04-03T11:35:59;3.20;;;1.30;;
2041;SDS011;1026;51.460;7.252;2023-04-03T11:38:33;3.63;;;1.17;;
2041;SDS011;1026;51.460;7.252;2023-04-03T11:41:12;1.70;;;1.00;;
2041;SDS011;1026;51.460;7.252;2023-04-03T11:52:53;1.00;;;0.90;;
2041;SDS011;1026;51.460;7.252;2023-04-03T11:58:16;2.40;;;1.57;;
2041;SDS011;1026;51.460;7.252;2023-04-03T12:08:44;2.40;;;1.13;;
2041;SDS011;1026;51.460;7.252;2023-04-03T12:11:31;0.90;;;0.83;;
2041;SDS011;1026;51.460;7.252;2023-04-03T12:14:16;2.57;;;0.90;;
2041;SDS011;1026;51.460;7.252;2023-04-03T12:16:44;2.47;;;0.97;;
2041;SDS011;1026;51.460;7.252;2023-04-03T12:24:39;0.80;;;0.80;;
2041;SDS011;1026;51.460;7.252;2023-04-03T12:32:45;4.33;;;0.70;;
2041;SDS011;1026;51.460;7.252;2023-04-03T12:35:28;1.53;;;1.00;;
2041;SDS011;1026;51.460;7.252;2023-04-03T12:46:28;0.97;;;0.87;;
2041;SDS011;1026;51.460;7.252;2023-04-03T12:49:04;1.90;;;1.13;;
2041;SDS011;1026;51.460;7.252;2023-04-03T12:51:57;4.93;;;1.20;;
2041;SDS011;1026;51.460;7.252;2023-04-03T12:54:35;1.00;;;0.80;;
2041;SDS011;1026;51.460;7.252;2023-04-03T12:57:17;1.03;;;0.93;;
2041;SDS011;1026;51.460;7.252;2023-04-03T12:59:46;0.73;;;0.70;;
2041;SDS011;1026;51.460;7.252;2023-04-03T13:02:21;1.03;;;1.00;;
2041;SDS011;1026;51.460;7.252;2023-04-03T13:05:05;2.10;;;1.20;;
2041;SDS011;1026;51.460;7.252;2023-04-03T13:07:35;1.43;;;1.00;;
2041;SDS011;1026;51.460;7.252;2023-04-03T13:12:51;1.10;;;1.00;;
2041;SDS011;1026;51.460;7.252;2023-04-03T13:15:42;1.53;;;1.10;;
2041;SDS011;1026;51.460;7.252;2023-04-03T13:21:30;1.33;;;1.13;;
2041;SDS011;1026;51.460;7.252;2023-04-03T13:24:09;1.93;;;1.10;;
2041;SDS011;1026;51.460;7.252;2023-04-03T13:26:38;1.10;;;0.80;;
2041;SDS011;1026;51.460;7.252;2023-04-03T13:29:19;1.03;;;0.70;;
2041;SDS011;1026;51.460;7.252;2023-04-03T13:31:57;1.10;;;0.90;;
2041;SDS011;1026;51.460;7.252;2023-04-03T13:34:26;1.07;;;0.90;;
2041;SDS011;1026;51.460;7.252;2023-04-03T13:36:58;1.40;;;1.10;;
2041;SDS011;1026;51.460;7.252;2023-04-03T13:39:36;2.17;;;0.90;;
2041;SDS011;1026;51.460;7.252;2023-04-03T13:47:47;3.33;;;1.30;;
2041;SDS011;1026;51.460;7.252;2023-04-03T13:50:19;1.70;;;1.10;;
2041;SDS011;1026;51.460;7.252;2023-04-03T13:52:52;1.00;;;0.90;;
2041;SDS011;1026;51.460;7.252;2023-04-03T13:55:29;7.33;;;1.00;;
2041;SDS011;1026;51.460;7.252;2023-04-03T13:58:18;2.40;;;1.07;;
2041;SDS011;1026;51.460;7.252;2023-04-03T14:00:51;7.80;;;1.40;;
2041;SDS011;1026;51.460;7.252;2023-04-03T14:03:23;1.30;;;1.17;;
2041;SDS011;1026;51.460;7.252;2023-04-03T14:05:52;1.33;;;1.23;;
2041;SDS011;1026;51.460;7.252;2023-04-03T14:08:20;2.10;;;1.90;;
2041;SDS011;1026;51.460;7.252;2023-04-03T14:11:26;3.43;;;1.37;;
2041;SDS011;1026;51.460;7.252;2023-04-03T14:14:00;2.10;;;1.90;;
2041;SDS011;1026;51.460;7.252;2023-04-03T14:16:37;1.53;;;1.20;;
2041;SDS011;1026;51.460;7.252;2023-04-03T14:19:14;1.80;;;1.07;;
2041;SDS011;1026;51.460;7.252;2023-04-03T14:21:47;3.17;;;2.37;;
2041;SDS011;1026;51.460;7.252;2023-04-03T14:24:27;1.43;;;1.03;;
2041;SDS011;1026;51.460;7.252;2023-04-03T14:26:54;1.93;;;0.90;;
2041;SDS011;1026;51.460;7.252;2023-04-03T14:29:27;0.87;;;0.80;;
2041;SDS011;1026;51.460;7.252;2023-04-03T14:32:00;1.87;;;1.23;;
2041;SDS011;1026;51.460;7.252;2023-04-03T14:34:29;2.30;;;0.90;;
2041;SDS011;1026;51.460;7.252;2023-04-03T14:36:58;2.20;;;1.13;;
2041;SDS011;1026;51.460;7.252;2023-04-03T14:39:26;0.73;;;0.73;;
2041;SDS011;1026;51.460;7.252;2023-04-03T14:42:06;1.30;;;1.10;;
2041;SDS011;1026;51.460;7.252;2023-04-03T14:44:47;1.43;;;1.00;;
2041;SDS011;1026;51.460;7.252;2023-04-03T14:47:31;1.53;;;1.00;;
2041;SDS011;1026;51.460;7.252;2023-04-03T14:50:00;1.30;;;1.20;;
2041;SDS011;1026;51.460;7.252;2023-04-03T14:52:28;2.20;;;1.35;;
2041;SDS011;1026;51.460;7.252;2023-04-03T14:54:59;1.37;;;1.10;;
2041;SDS011;1026;51.460;7.252;2023-04-03T14:57:27;1.10;;;1.00;;
2041;SDS011;1026;51.460;7.252;2023-04-03T14:59:54;2.43;;;1.90;;
2041;SDS011;1026;51.460;7.252;2023-04-03T15:02:24;2.70;;;1.10;;
2041;SDS011;1026;51.460;7.252;2023-04-03T15:05:05;1.67;;;1.00;;
2041;SDS011;1026;51.460;7.252;2023-04-03T15:07:35;1.70;;;1.00;;
2041;SDS011;1026;51.460;7.252;2023-04-03T15:10:09;2.40;;;1.43;;
2041;SDS011;1026;51.460;7.252;2023-04-03T15:12:43;3.50;;;1.27;;
2041;SDS011;1026;51.460;7.252;2023-04-03T15:15:29;1.00;;;0.90;;
2041;SDS011;1026;51.460;7.252;2023-04-03T15:18:19;2.90;;;1.00;;
2041;SDS011;1026;51.460;7.252;2023-04-03T15:23:45;3.17;;;1.20;;
2041;SDS011;1026;51.460;7.252;2023-04-03T15:26:11;1.70;;;1.25;;
2041;SDS011;1026;51.460;7.252;2023-04-03T15:28:37;2.43;;;1.30;;
2041;SDS011;1026;51.460;7.252;2023-04-03T15:31:05;1.03;;;1.03;;
2041;SDS011;1026;51.460;7.252;2023-04-03T15:33:39;2.90;;;1.33;;
2041;SDS011;1026;51.460;7.252;2023-04-03T15:36:07;6.97;;;2.50;;
2041;SDS011;1026;51.460;7.252;2023-04-03T15:38:34;3.30;;;1.60;;
2041;SDS011;1026;51.460;7.252;2023-04-03T15:41:04;1.20;;;1.00;;
2041;SDS011;1026;51.460;7.252;2023-04-03T15:43:50;2.77;;;1.43;;
2041;SDS011;1026;51.460;7.252;2023-04-03T15:46:16;3.90;;;1.27;;
2041;SDS011;1026;51.460;7.252;2023-04-03T15:48:42;2.70;;;1.13;;
2041;SDS011;1026;51.460;7.252;2023-04-03T15:51:08;1.87;;;1.13;;
2041;SDS011;1026;51.460;7.252;2023-04-03T15:53:34;1.50;;;1.40;;
2041;SDS011;1026;51.460;7.252;2023-04-03T15:55:59;2.38;;;1.63;;
2041;SDS011;1026;51.460;7.252;2023-04-03T15:58:25;4.40;;;1.37;;
2041;SDS011;1026;51.460;7.252;2023-04-03T16:00:51;2.80;;;1.23;;
2041;SDS011;1026;51.460;7.252;2023-04-03T16:03:18;1.57;;;0.90;;
2041;SDS011;1026;51.460;7.252;2023-04-03T16:05:45;3.90;;;1.50;;
2041;SDS011;1026;51.460;7.252;2023-04-03T16:08:11;1.60;;;1.50;;
2041;SDS011;1026;51.460;7.252;2023-04-03T16:10:39;1.67;;;1.57;;
2041;SDS011;1026;51.460;7.252;2023-04-03T16:13:05;1.97;;;1.30;;
2041;SDS011;1026;51.460;7.252;2023-04-03T16:15:31;4.70;;;1.30;;
2041;SDS011;1026;51.460;7.252;2023-04-03T16:17:59;1.83;;;1.63;;
2041;SDS011;1026;51.460;7.252;2023-04-03T16:20:25;2.33;;;1.10;;
2041;SDS011;1026;51.460;7.252;2023-04-03T16:22:52;1.40;;;1.07;;
2041;SDS011;1026;51.460;7.252;2023-04-03T16:25:18;2.63;;;1.20;;
2041;SDS011;1026;51.460;7.252;2023-04-03T16:27:44;1.47;;;1.37;;
2041;SDS011;1026;51.460;7.252;2023-04-03T16:30:10;2.30;;;1.30;;
2041;SDS011;1026;51.460;7.252;2023-04-03T16:32:36;2.60;;;1.10;;
2041;SDS011;1026;51.460;7.252;2023-04-03T16:35:04;5.70;;;1.87;;
2041;SDS011;1026;51.460;7.252;2023-04-03T16:37:30;2.93;;;1.13;;
2041;SDS011;1026;51.460;7.252;2023-04-03T16:39:56;1.47;;;1.20;;
2041;SDS011;1026;51.460;7.252;2023-04-03T16:42:23;1.53;;;1.17;;
2041;SDS011;1026;51.460;7.252;2023-04-03T16:44:49;2.90;;;1.30;;
2041;SDS011;1026;51.460;7.252;2023-04-03T16:47:15;1.30;;;1.20;;
2041;SDS011;1026;51.460;7.252;2023-04-03T16:49:58;1.60;;;1.27;;
2041;SDS011;1026;51.460;7.252;2023-04-03T16:52:23;2.93;;;1.17;;
2041;SDS011;1026;51.460;7.252;2023-04-03T16:54:49;6.00;;;1.30;;
2041;SDS011;1026;51.460;7.252;2023-04-03T16:57:20;2.53;;;1.47;;
2041;SDS011;1026;51.460;7.252;2023-04-03T16:59:46;1.70;;;1.40;;
2041;SDS011;1026;51.460;7.252;2023-04-03T17:02:12;2.67;;;1.03;;
2041;SDS011;1026;51.460;7.252;2023-04-03T17:04:37;3.07;;;1.17;;
2041;SDS011;1026;51.460;7.252;2023-04-03T17:07:03;1.20;;;0.90;;
2041;SDS011;1026;51.460;7.252;2023-04-03T17:09:31;1.70;;;1.40;;
2041;SDS011;1026;51.460;7.252;2023-04-03T17:11:57;2.03;;;1.00;;
2041;SDS011;1026;51.460;7.252;2023-04-03T17:14:23;5.03;;;1.33;;
2041;SDS011;1026;51.460;7.252;2023-04-03T17:16:49;1.47;;;1.37;;
2041;SDS011;1026;51.460;7.252;2023-04-03T17:19:15;3.03;;;1.13;;
2041;SDS011;1026;51.460;7.252;2023-04-03T17:21:42;1.37;;;1.00;;
2041;SDS011;1026;51.460;7.252;2023-04-03T17:24:08;1.10;;;1.00;;
2041;SDS011;1026;51.460;7.252;2023-04-03T17:26:38;1.90;;;1.70;;
2041;SDS011;1026;51.460;7.252;2023-04-03T17:29:05;1.30;;;1.10;;
2041;SDS011;1026;51.460;7.252;2023-04-03T17:31:31;3.17;;;1.10;;
2041;SDS011;1026;51.460;7.252;2023-04-03T17:33:57;1.60;;;1.40;;